createdAt,value
2019-05-22T00:00:17.400Z,95294
2019-05-22T00:01:26.945Z,95295
2019-05-22T00:02:36.459Z,95299
2019-05-22T00:03:45.973Z,95297
2019-05-22T00:04:55.489Z,95304
2019-05-22T00:06:05.073Z,95303
2019-05-22T00:07:14.594Z,95299
2019-05-22T00:08:24.105Z,95304
2019-05-22T00:09:33.613Z,95300
2019-05-22T00:10:43.122Z,95290
2019-05-22T00:11:52.666Z,95300
2019-05-22T00:13:02.188Z,95295
2019-05-22T00:14:11.685Z,95296
2019-05-22T00:15:21.192Z,95303
2019-05-22T00:16:30.752Z,95304
2019-05-22T00:17:40.265Z,95306
2019-05-22T00:18:49.769Z,95298
2019-05-22T00:19:59.284Z,95304
2019-05-22T00:21:08.816Z,95304
2019-05-22T00:22:18.381Z,95307
2019-05-22T00:23:27.895Z,95311
2019-05-22T00:24:37.406Z,95305
2019-05-22T00:25:46.926Z,95308
2019-05-22T00:26:56.462Z,95308
2019-05-22T00:28:05.982Z,95310
2019-05-22T00:29:15.500Z,95312
2019-05-22T00:30:25.019Z,95311
2019-05-22T00:31:34.554Z,95309
2019-05-22T00:32:44.077Z,95307
2019-05-22T00:33:53.583Z,95303
2019-05-22T00:35:03.093Z,95306
2019-05-22T00:36:12.599Z,95305
2019-05-22T00:37:22.144Z,95304
2019-05-22T00:38:31.667Z,95308
2019-05-22T00:39:41.179Z,95304
2019-05-22T00:40:50.716Z,95306
2019-05-22T00:42:00.252Z,95308
2019-05-22T00:43:13.963Z,95314
2019-05-22T00:44:19.254Z,95312
2019-05-22T00:45:28.783Z,95315
2019-05-22T00:46:38.277Z,95312
2019-05-22T00:47:47.856Z,95322
2019-05-22T00:48:57.331Z,95319
2019-05-22T00:50:06.837Z,95314
2019-05-22T00:51:16.355Z,95318
2019-05-22T00:52:25.905Z,95318
2019-05-22T00:53:35.430Z,95321
2019-05-22T00:54:44.945Z,95319
2019-05-22T00:55:54.449Z,95319
2019-05-22T00:57:04.010Z,95320
2019-05-22T00:58:13.524Z,95321
2019-05-22T00:59:23.043Z,95316
2019-05-22T01:00:34.842Z,95316
2019-05-22T01:01:42.056Z,95316
2019-05-22T01:02:51.597Z,95316
2019-05-22T01:04:01.136Z,95319
2019-05-22T01:05:10.636Z,95317
2019-05-22T01:06:20.136Z,95316
2019-05-22T01:07:29.720Z,95320
2019-05-22T01:08:39.228Z,95317
2019-05-22T01:09:48.764Z,95320
2019-05-22T01:10:58.289Z,95323
2019-05-22T01:12:07.797Z,95320
2019-05-22T01:13:17.319Z,95323
2019-05-22T01:14:40.385Z,95321
2019-05-22T01:15:37.319Z,95321
2019-05-22T01:16:46.829Z,95327
2019-05-22T01:17:56.369Z,95326
2019-05-22T01:19:05.875Z,95326
2019-05-22T01:20:15.389Z,95328
2019-05-22T01:21:24.901Z,95329
2019-05-22T01:22:34.411Z,95328
2019-05-22T01:23:43.958Z,95330
2019-05-22T01:24:53.482Z,95327
2019-05-22T01:26:02.981Z,95330
2019-05-22T01:27:12.499Z,95329
2019-05-22T01:28:22.075Z,95331
2019-05-22T01:29:31.590Z,95330
2019-05-22T01:30:41.096Z,95328
2019-05-22T01:31:50.608Z,95332
2019-05-22T01:33:00.135Z,95330
2019-05-22T01:34:09.664Z,95331
2019-05-22T01:35:19.179Z,95329
2019-05-22T01:36:28.685Z,95329
2019-05-22T01:37:38.197Z,95326
2019-05-22T01:38:47.747Z,95334
2019-05-22T01:39:57.263Z,95335
2019-05-22T01:41:06.787Z,95334
2019-05-22T01:42:16.306Z,95333
2019-05-22T01:43:25.810Z,95337
2019-05-22T01:44:35.392Z,95334
2019-05-22T01:45:44.905Z,95336
2019-05-22T01:46:54.423Z,95335
2019-05-22T01:48:03.935Z,95331
2019-05-22T01:49:13.475Z,95335
2019-05-22T01:50:22.982Z,95337
2019-05-22T01:51:32.484Z,95335
2019-05-22T01:52:41.998Z,95340
2019-05-22T01:53:51.536Z,95339
2019-05-22T01:55:01.073Z,95341
2019-05-22T01:56:10.618Z,95336
2019-05-22T01:57:20.113Z,95337
2019-05-22T01:58:29.633Z,95338
2019-05-22T01:59:39.183Z,95337
2019-05-22T02:00:48.703Z,95344
2019-05-22T02:01:58.218Z,95344
2019-05-22T02:03:08.731Z,95344
2019-05-22T02:04:18.299Z,95342
2019-05-22T02:05:27.816Z,95340
2019-05-22T02:06:37.396Z,95347
2019-05-22T02:07:46.841Z,95344
2019-05-22T02:08:56.352Z,95342
2019-05-22T02:10:05.920Z,95346
2019-05-22T02:11:15.428Z,95347
2019-05-22T02:12:24.946Z,95347
2019-05-22T02:13:34.458Z,95350
2019-05-22T02:14:44.013Z,95350
2019-05-22T02:15:53.522Z,95351
2019-05-22T02:17:03.058Z,95350
2019-05-22T02:18:12.556Z,95355
2019-05-22T02:19:22.067Z,95351
2019-05-22T02:20:31.682Z,95354
2019-05-22T02:21:41.211Z,95356
2019-05-22T02:22:50.733Z,95351
2019-05-22T02:24:00.255Z,95355
2019-05-22T02:25:09.777Z,95353
2019-05-22T02:26:19.301Z,95356
2019-05-22T02:27:28.812Z,95356
2019-05-22T02:28:38.344Z,95351
2019-05-22T02:29:47.858Z,95353
2019-05-22T02:30:57.461Z,95370
2019-05-22T02:32:06.981Z,95356
2019-05-22T02:33:16.494Z,95360
2019-05-22T02:34:26.016Z,95355
2019-05-22T02:35:35.557Z,95359
2019-05-22T02:36:45.079Z,95356
2019-05-22T02:37:54.614Z,95360
2019-05-22T02:39:04.129Z,95353
2019-05-22T02:40:13.649Z,95357
2019-05-22T02:41:23.165Z,95361
2019-05-22T02:42:32.699Z,95359
2019-05-22T02:43:42.210Z,95368
2019-05-22T02:44:51.725Z,95355
2019-05-22T02:46:01.268Z,95360
2019-05-22T02:47:18.643Z,95365
2019-05-22T02:48:21.264Z,95366
2019-05-22T02:49:30.785Z,95367
2019-05-22T02:50:40.336Z,95366
2019-05-22T02:51:49.838Z,95362
2019-05-22T02:52:59.369Z,95363
2019-05-22T02:54:08.885Z,95372
2019-05-22T02:55:18.408Z,95372
2019-05-22T02:56:27.989Z,95375
2019-05-22T02:57:37.501Z,95369
2019-05-22T02:58:47.021Z,95374
2019-05-22T02:59:56.540Z,95376
2019-05-22T03:01:06.085Z,95374
2019-05-22T03:02:15.609Z,95375
2019-05-22T03:03:25.141Z,95382
2019-05-22T03:04:34.668Z,95378
2019-05-22T03:05:44.328Z,95379
2019-05-22T03:06:53.841Z,95382
2019-05-22T03:08:03.360Z,95381
2019-05-22T03:09:12.884Z,95384
2019-05-22T03:10:22.402Z,95382
2019-05-22T03:11:35.145Z,95383
2019-05-22T03:12:41.458Z,95383
2019-05-22T03:13:50.976Z,95381
2019-05-22T03:15:00.492Z,95382
2019-05-22T03:16:10.022Z,95383
2019-05-22T03:17:19.525Z,95387
2019-05-22T03:18:29.034Z,95383
2019-05-22T03:19:38.538Z,95396
2019-05-22T03:20:48.057Z,95385
2019-05-22T03:21:57.606Z,95390
2019-05-22T03:23:07.121Z,95390
2019-05-22T03:24:16.646Z,95388
2019-05-22T03:25:26.145Z,95388
2019-05-22T03:26:35.676Z,95390
2019-05-22T03:27:45.204Z,95391
2019-05-22T03:28:54.707Z,95389
2019-05-22T03:30:04.225Z,95392
2019-05-22T03:31:14.030Z,95392
2019-05-22T03:32:23.311Z,95394
2019-05-22T03:33:32.819Z,95392
2019-05-22T03:34:42.344Z,95391
2019-05-22T03:35:52.074Z,95391
2019-05-22T03:37:01.417Z,95393
2019-05-22T03:38:10.937Z,95399
2019-05-22T03:39:20.440Z,95393
2019-05-22T03:40:29.994Z,95390
2019-05-22T03:41:39.501Z,95393
2019-05-22T03:42:49.012Z,95395
2019-05-22T03:43:58.570Z,95395
2019-05-22T03:45:08.088Z,95401
2019-05-22T03:46:17.656Z,95401
2019-05-22T03:47:27.190Z,95397
2019-05-22T03:48:36.695Z,95399
2019-05-22T03:49:46.208Z,95398
2019-05-22T03:50:55.708Z,95400
2019-05-22T03:52:05.252Z,95404
2019-05-22T03:53:14.756Z,95399
2019-05-22T03:54:24.277Z,95397
2019-05-22T03:55:33.794Z,95400
2019-05-22T03:56:43.361Z,95404
2019-05-22T03:57:52.880Z,95405
2019-05-22T03:59:02.388Z,95408
2019-05-22T04:00:11.909Z,95407
2019-05-22T04:01:21.448Z,95413
2019-05-22T04:02:31.023Z,95410
2019-05-22T04:03:40.505Z,95414
2019-05-22T04:04:50.022Z,95412
2019-05-22T04:05:59.601Z,95416
2019-05-22T04:07:09.069Z,95417
2019-05-22T04:08:18.580Z,95414
2019-05-22T04:09:28.089Z,95420
2019-05-22T04:10:40.943Z,95415
2019-05-22T04:11:47.134Z,95421
2019-05-22T04:12:56.710Z,95416
2019-05-22T04:14:06.301Z,95420
2019-05-22T04:15:15.842Z,95424
2019-05-22T04:16:25.364Z,95420
2019-05-22T04:17:34.973Z,95426
2019-05-22T04:18:44.490Z,95431
2019-05-22T04:19:53.991Z,95427
2019-05-22T04:21:03.498Z,95430
2019-05-22T04:22:13.060Z,95434
2019-05-22T04:23:22.585Z,95430
2019-05-22T04:24:32.096Z,95433
2019-05-22T04:25:41.600Z,95432
2019-05-22T04:26:51.139Z,95435
2019-05-22T04:28:00.669Z,95432
2019-05-22T04:29:10.177Z,95430
2019-05-22T04:30:19.698Z,95439
2019-05-22T04:31:29.244Z,95442
2019-05-22T04:32:38.805Z,95434
2019-05-22T04:33:48.320Z,95431
2019-05-22T04:34:57.835Z,95430
2019-05-22T04:36:10.046Z,95438
2019-05-22T04:37:16.843Z,95438
2019-05-22T04:38:26.372Z,95440
2019-05-22T04:39:35.902Z,95435
2019-05-22T04:40:45.407Z,95445
2019-05-22T04:41:54.924Z,95437
2019-05-22T04:43:04.454Z,95434
2019-05-22T04:44:13.980Z,95439
2019-05-22T04:45:23.497Z,95442
2019-05-22T04:46:34.215Z,95438
2019-05-22T04:47:44.592Z,95442
2019-05-22T04:48:54.100Z,95433
2019-05-22T04:50:06.996Z,95436
2019-05-22T04:51:13.087Z,95443
2019-05-22T04:52:22.600Z,95440
2019-05-22T04:53:32.142Z,95441
2019-05-22T04:54:41.659Z,95445
2019-05-22T04:55:51.165Z,95450
2019-05-22T04:57:00.671Z,95452
2019-05-22T04:58:10.215Z,95445
2019-05-22T04:59:19.717Z,95449
2019-05-22T05:00:29.218Z,95450
2019-05-22T05:01:38.840Z,95450
2019-05-22T05:02:48.263Z,95445
2019-05-22T05:03:57.827Z,95446
2019-05-22T05:05:07.311Z,95442
2019-05-22T05:06:16.825Z,95447
2019-05-22T05:07:26.326Z,95450
2019-05-22T05:08:35.857Z,95453
2019-05-22T05:09:45.362Z,95449
2019-05-22T05:10:54.881Z,95450
2019-05-22T05:12:04.407Z,95455
2019-05-22T05:13:13.918Z,95451
2019-05-22T05:14:23.607Z,95449
2019-05-22T05:15:33.121Z,95455
2019-05-22T05:16:42.637Z,95454
2019-05-22T05:17:52.153Z,95461
2019-05-22T05:19:01.691Z,95454
2019-05-22T05:20:21.887Z,95455
2019-05-22T05:21:21.673Z,95460
2019-05-22T05:22:31.251Z,95453
2019-05-22T05:23:40.740Z,95458
2019-05-22T05:24:50.256Z,95454
2019-05-22T05:25:59.750Z,95455
2019-05-22T05:27:09.263Z,95458
2019-05-22T05:28:18.775Z,95461
2019-05-22T05:29:28.292Z,95464
2019-05-22T05:30:37.819Z,95459
2019-05-22T05:31:47.322Z,95466
2019-05-22T05:32:56.858Z,95466
2019-05-22T05:34:06.397Z,95467
2019-05-22T05:35:16.898Z,95467
2019-05-22T05:36:26.403Z,95467
2019-05-22T05:37:35.917Z,95466
2019-05-22T05:38:45.431Z,95470
2019-05-22T05:39:55.007Z,95473
2019-05-22T05:41:04.519Z,95472
2019-05-22T05:42:14.023Z,95473
2019-05-22T05:43:23.539Z,95471
2019-05-22T05:44:33.076Z,95477
2019-05-22T05:45:42.572Z,95472
2019-05-22T05:46:52.093Z,95469
2019-05-22T05:48:01.614Z,95474
2019-05-22T05:49:11.172Z,95478
2019-05-22T05:50:20.736Z,95478
2019-05-22T05:51:31.234Z,95477
2019-05-22T05:52:40.762Z,95480
2019-05-22T05:53:50.280Z,95476
2019-05-22T05:54:59.821Z,95486
2019-05-22T05:56:09.339Z,95491
2019-05-22T05:57:18.862Z,95484
2019-05-22T05:58:28.401Z,95487
2019-05-22T05:59:37.945Z,95483
2019-05-22T06:00:47.461Z,95488
2019-05-22T06:01:56.986Z,95496
2019-05-22T06:03:06.491Z,95492
2019-05-22T06:04:16.009Z,95494
2019-05-22T06:05:26.588Z,95494
2019-05-22T06:06:36.118Z,95493
2019-05-22T06:07:45.625Z,95487
2019-05-22T06:08:55.140Z,95496
2019-05-22T06:10:04.752Z,95499
2019-05-22T06:11:14.245Z,95501
2019-05-22T06:12:23.773Z,95499
2019-05-22T06:13:33.280Z,95502
2019-05-22T06:14:42.861Z,95504
2019-05-22T06:15:52.374Z,95501
2019-05-22T06:17:02.007Z,95504
2019-05-22T06:18:11.431Z,95506
2019-05-22T06:19:20.935Z,95505
2019-05-22T06:20:30.500Z,95510
2019-05-22T06:21:40.019Z,95505
2019-05-22T06:22:49.535Z,95508
2019-05-22T06:24:00.034Z,95511
2019-05-22T06:25:09.749Z,95513
2019-05-22T06:26:19.100Z,95510
2019-05-22T06:27:28.623Z,95513
2019-05-22T06:28:38.151Z,95516
2019-05-22T06:29:47.673Z,95516
2019-05-22T06:30:57.220Z,95514
2019-05-22T06:32:06.732Z,95517
2019-05-22T06:33:16.260Z,95519
2019-05-22T06:34:25.803Z,95523
2019-05-22T06:35:35.391Z,95520
2019-05-22T06:36:44.909Z,95521
2019-05-22T06:37:54.415Z,95526
2019-05-22T06:39:03.933Z,95526
2019-05-22T06:40:13.511Z,95520
2019-05-22T06:41:23.021Z,95526
2019-05-22T06:42:32.529Z,95525
2019-05-22T06:43:42.040Z,95522
2019-05-22T06:44:51.560Z,95531
2019-05-22T06:46:01.124Z,95532
2019-05-22T06:47:10.650Z,95530
2019-05-22T06:48:20.160Z,95532
2019-05-22T06:49:29.694Z,95529
2019-05-22T06:50:39.248Z,95529
2019-05-22T06:51:49.747Z,95526
2019-05-22T06:53:09.245Z,95527
2019-05-22T06:54:09.766Z,95532
2019-05-22T06:55:19.288Z,95531
2019-05-22T06:56:28.859Z,95532
2019-05-22T06:57:38.365Z,95528
2019-05-22T06:58:47.902Z,95534
2019-05-22T07:00:11.959Z,95533
2019-05-22T07:01:07.922Z,95534
2019-05-22T07:02:17.432Z,95529
2019-05-22T07:03:26.947Z,95525
2019-05-22T07:04:36.458Z,95531
2019-05-22T07:05:46.011Z,95522
2019-05-22T07:06:55.545Z,95528
2019-05-22T07:08:05.100Z,95531
2019-05-22T07:09:14.607Z,95530
2019-05-22T07:10:24.124Z,95530
2019-05-22T07:11:33.666Z,95530
2019-05-22T07:12:43.193Z,95544
2019-05-22T07:13:53.675Z,95530
2019-05-22T07:15:03.187Z,95542
2019-05-22T07:16:12.731Z,95538
2019-05-22T07:17:22.244Z,95535
2019-05-22T07:18:31.762Z,95548
2019-05-22T07:19:41.282Z,95538
2019-05-22T07:20:50.823Z,95543
2019-05-22T07:22:00.348Z,95542
2019-05-22T07:23:09.865Z,95551
2019-05-22T07:24:19.389Z,95552
2019-05-22T07:25:28.902Z,95555
2019-05-22T07:26:38.443Z,95557
2019-05-22T07:27:47.963Z,95552
2019-05-22T07:29:00.847Z,95559
2019-05-22T07:30:08.020Z,95555
2019-05-22T07:31:17.521Z,95556
2019-05-22T07:32:30.641Z,95550
2019-05-22T07:33:36.556Z,95557
2019-05-22T07:34:46.095Z,95559
2019-05-22T07:36:09.002Z,95556
2019-05-22T07:37:06.154Z,95561
2019-05-22T07:38:15.841Z,95559
2019-05-22T07:39:25.198Z,95554
2019-05-22T07:40:34.725Z,95558
2019-05-22T07:41:44.267Z,95549
2019-05-22T07:42:53.799Z,95555
2019-05-22T07:44:03.337Z,95554
2019-05-22T07:45:12.853Z,95554
2019-05-22T07:46:22.427Z,95553
2019-05-22T07:47:32.977Z,95555
2019-05-22T07:48:42.445Z,95557
2019-05-22T07:49:51.956Z,95554
2019-05-22T07:51:01.578Z,95558
2019-05-22T07:52:11.030Z,95559
2019-05-22T07:53:20.566Z,95561
2019-05-22T07:54:30.074Z,95563
2019-05-22T07:55:39.595Z,95557
2019-05-22T07:56:49.145Z,95555
2019-05-22T07:57:58.666Z,95558
2019-05-22T07:59:08.180Z,95561
2019-05-22T08:00:17.710Z,95563
2019-05-22T08:01:27.258Z,95559
2019-05-22T08:02:36.782Z,95560
2019-05-22T08:03:46.313Z,95564
2019-05-22T08:04:55.830Z,95561
2019-05-22T08:06:05.402Z,95558
2019-05-22T08:07:15.003Z,95555
2019-05-22T08:08:24.520Z,95561
2019-05-22T08:09:34.051Z,95561
2019-05-22T08:10:43.569Z,95555
2019-05-22T08:11:53.134Z,95560
2019-05-22T08:13:02.646Z,95558
2019-05-22T08:14:12.157Z,95564
2019-05-22T08:15:21.666Z,95561
2019-05-22T08:16:31.239Z,95562
2019-05-22T08:17:40.764Z,95559
2019-05-22T08:18:50.280Z,95559
2019-05-22T08:19:59.795Z,95566
2019-05-22T08:21:09.340Z,95561
2019-05-22T08:22:18.881Z,95575
2019-05-22T08:23:28.424Z,95554
2019-05-22T08:24:37.975Z,95561
2019-05-22T08:25:47.467Z,95559
2019-05-22T08:26:57.005Z,95563
2019-05-22T08:28:06.519Z,95558
2019-05-22T08:29:16.029Z,95563
2019-05-22T08:30:25.571Z,95560
2019-05-22T08:31:35.133Z,95569
2019-05-22T08:32:44.645Z,95561
2019-05-22T08:33:54.193Z,95562
2019-05-22T08:35:03.743Z,95565
2019-05-22T08:36:14.294Z,95566
2019-05-22T08:37:23.811Z,95564
2019-05-22T08:38:33.338Z,95561
2019-05-22T08:39:42.871Z,95565
2019-05-22T08:40:52.399Z,95555
2019-05-22T08:42:02.038Z,95555
2019-05-22T08:43:11.497Z,95561
2019-05-22T08:44:21.004Z,95566
2019-05-22T08:45:30.537Z,95565
2019-05-22T08:46:40.061Z,95561
2019-05-22T08:47:49.647Z,95559
2019-05-22T08:48:59.181Z,95570
2019-05-22T08:50:08.702Z,95576
2019-05-22T08:51:18.214Z,95574
2019-05-22T08:52:27.766Z,95575
2019-05-22T08:53:46.490Z,95573
2019-05-22T08:54:47.777Z,95577
2019-05-22T08:55:57.313Z,95584
2019-05-22T08:57:06.852Z,95586
2019-05-22T08:58:16.394Z,95580
2019-05-22T08:59:25.915Z,95582
2019-05-22T09:00:35.465Z,95580
2019-05-22T09:01:44.996Z,95592
2019-05-22T09:02:54.556Z,95586
2019-05-22T09:04:04.083Z,95583
2019-05-22T09:05:13.591Z,95588
2019-05-22T09:06:24.099Z,95591
2019-05-22T09:07:33.650Z,95589
2019-05-22T09:08:43.173Z,95588
2019-05-22T09:09:52.698Z,95591
2019-05-22T09:11:02.213Z,95599
2019-05-22T09:12:11.761Z,95581
2019-05-22T09:13:21.280Z,95586
2019-05-22T09:14:30.777Z,95591
2019-05-22T09:15:40.312Z,95593
2019-05-22T09:16:49.827Z,95596
2019-05-22T09:17:59.371Z,95589
2019-05-22T09:19:08.888Z,95594
2019-05-22T09:20:18.515Z,95596
2019-05-22T09:21:28.018Z,95592
2019-05-22T09:22:40.436Z,95594
2019-05-22T09:23:47.061Z,95601
2019-05-22T09:24:56.582Z,95598
2019-05-22T09:26:06.124Z,95606
2019-05-22T09:27:15.677Z,95592
2019-05-22T09:28:25.224Z,95601
2019-05-22T09:29:34.732Z,95606
2019-05-22T09:30:44.270Z,95598
2019-05-22T09:31:53.778Z,95600
2019-05-22T09:33:03.326Z,95606
2019-05-22T09:34:12.855Z,95604
2019-05-22T09:35:22.483Z,95605
2019-05-22T09:36:31.906Z,95605
2019-05-22T09:37:41.452Z,95606
2019-05-22T09:38:52.310Z,95611
2019-05-22T09:40:00.495Z,95602
2019-05-22T09:41:10.016Z,95601
2019-05-22T09:42:19.573Z,95598
2019-05-22T09:43:29.092Z,95602
2019-05-22T09:44:38.619Z,95609
2019-05-22T09:45:48.210Z,95605
2019-05-22T09:46:57.677Z,95602
2019-05-22T09:48:07.220Z,95611
2019-05-22T09:49:16.735Z,95608
2019-05-22T09:50:27.250Z,95610
2019-05-22T09:51:36.754Z,95612
2019-05-22T09:52:56.663Z,95608
2019-05-22T09:53:56.784Z,95610
2019-05-22T09:55:06.281Z,95612
2019-05-22T09:56:15.786Z,95619
2019-05-22T09:57:25.329Z,95616
2019-05-22T09:58:34.850Z,95618
2019-05-22T09:59:44.366Z,95624
2019-05-22T10:00:53.889Z,95625
2019-05-22T10:02:03.411Z,95622
2019-05-22T10:03:12.993Z,95619
2019-05-22T10:04:22.497Z,95618
2019-05-22T10:05:33.077Z,95626
2019-05-22T10:06:42.528Z,95626
2019-05-22T10:08:00.213Z,95629
2019-05-22T10:09:02.539Z,95634
2019-05-22T10:10:12.054Z,95627
2019-05-22T10:11:21.610Z,95626
2019-05-22T10:12:31.160Z,95631
2019-05-22T10:13:40.998Z,95629
2019-05-22T10:14:50.314Z,95632
2019-05-22T10:15:59.720Z,95629
2019-05-22T10:17:09.223Z,95637
2019-05-22T10:18:18.761Z,95639
2019-05-22T10:19:28.274Z,95633
2019-05-22T10:20:37.805Z,95635
2019-05-22T10:21:47.307Z,95642
2019-05-22T10:23:12.471Z,95644
2019-05-22T10:24:07.352Z,95641
2019-05-22T10:25:17.427Z,95646
2019-05-22T10:26:26.355Z,95642
2019-05-22T10:27:35.911Z,95643
2019-05-22T10:28:45.485Z,95648
2019-05-22T10:29:54.951Z,95648
2019-05-22T10:31:04.562Z,95647
2019-05-22T10:32:15.050Z,95652
2019-05-22T10:33:24.600Z,95652
2019-05-22T10:34:34.137Z,95645
2019-05-22T10:35:43.658Z,95647
2019-05-22T10:36:53.163Z,95657
2019-05-22T10:38:02.715Z,95657
2019-05-22T10:39:12.237Z,95651
2019-05-22T10:40:21.752Z,95648
2019-05-22T10:41:31.258Z,95649
2019-05-22T10:42:44.560Z,95647
2019-05-22T10:43:50.315Z,95652
2019-05-22T10:44:59.840Z,95652
2019-05-22T10:46:09.405Z,95661
2019-05-22T10:47:19.117Z,95650
2019-05-22T10:48:28.448Z,95653
2019-05-22T10:49:37.968Z,95649
2019-05-22T10:50:47.492Z,95649
2019-05-22T10:51:57.033Z,95651
2019-05-22T10:53:06.592Z,95651
2019-05-22T10:54:16.094Z,95654
2019-05-22T10:55:25.614Z,95649
2019-05-22T10:56:35.128Z,95650
2019-05-22T10:57:44.956Z,95648
2019-05-22T10:58:54.226Z,95649
2019-05-22T11:00:04.719Z,95650
2019-05-22T11:01:14.240Z,95647
2019-05-22T11:02:23.747Z,95650
2019-05-22T11:03:33.296Z,95646
2019-05-22T11:04:42.814Z,95648
2019-05-22T11:06:06.130Z,95649
2019-05-22T11:07:02.821Z,95642
2019-05-22T11:08:12.373Z,95644
2019-05-22T11:09:21.900Z,95651
2019-05-22T11:10:31.430Z,95653
2019-05-22T11:11:40.946Z,95650
2019-05-22T11:12:50.641Z,95647
2019-05-22T11:14:01.888Z,95655
2019-05-22T11:15:10.675Z,95654
2019-05-22T11:16:20.173Z,95660
2019-05-22T11:17:29.682Z,95665
2019-05-22T11:18:39.210Z,95660
2019-05-22T11:19:48.727Z,95667
2019-05-22T11:20:58.247Z,95664
2019-05-22T11:22:07.775Z,95664
2019-05-22T11:23:17.310Z,95665
2019-05-22T11:24:26.829Z,95659
2019-05-22T11:25:36.362Z,95667
2019-05-22T11:26:45.872Z,95666
2019-05-22T11:27:55.382Z,95672
2019-05-22T11:29:04.956Z,95666
2019-05-22T11:30:14.478Z,95661
2019-05-22T11:31:23.998Z,95664
2019-05-22T11:32:33.502Z,95668
2019-05-22T11:33:43.037Z,95667
2019-05-22T11:34:52.639Z,95670
2019-05-22T11:36:02.153Z,95661
2019-05-22T11:37:11.678Z,95677
2019-05-22T11:38:21.217Z,95670
2019-05-22T11:39:39.106Z,95670
2019-05-22T11:40:41.199Z,95676
2019-05-22T11:41:50.730Z,95670
2019-05-22T11:43:00.258Z,95672
2019-05-22T11:44:09.930Z,95671
2019-05-22T11:45:19.445Z,95668
2019-05-22T11:46:28.957Z,95670
2019-05-22T11:47:38.474Z,95669
2019-05-22T11:48:49.013Z,95665
2019-05-22T11:49:58.539Z,95667
2019-05-22T11:51:08.051Z,95674
2019-05-22T11:52:17.629Z,95671
2019-05-22T11:53:27.176Z,95673
2019-05-22T11:54:36.703Z,95675
2019-05-22T11:55:46.627Z,95677
2019-05-22T11:56:55.755Z,95668
2019-05-22T11:58:05.271Z,95674
2019-05-22T11:59:14.873Z,95672
2019-05-22T12:00:24.440Z,95674
2019-05-22T12:01:33.911Z,95671
2019-05-22T12:02:43.438Z,95671
2019-05-22T12:03:53.010Z,95676
2019-05-22T12:05:02.504Z,95670
2019-05-22T12:06:12.009Z,95674
2019-05-22T12:07:21.523Z,95669
2019-05-22T12:08:31.071Z,95666
2019-05-22T12:09:40.583Z,95666
2019-05-22T12:10:50.091Z,95662
2019-05-22T12:11:59.623Z,95671
2019-05-22T12:13:09.147Z,95665
2019-05-22T12:14:18.719Z,95665
2019-05-22T12:15:28.222Z,95671
2019-05-22T12:16:37.741Z,95668
2019-05-22T12:17:47.264Z,95666
2019-05-22T12:18:58.781Z,95669
2019-05-22T12:20:06.425Z,95674
2019-05-22T12:21:15.946Z,95672
2019-05-22T12:22:25.467Z,95672
2019-05-22T12:23:35.011Z,95670
2019-05-22T12:24:44.525Z,95677
2019-05-22T12:25:54.041Z,95672
2019-05-22T12:27:03.553Z,95670
2019-05-22T12:28:13.062Z,95671
2019-05-22T12:29:22.621Z,95676
2019-05-22T12:30:32.153Z,95673
2019-05-22T12:31:41.679Z,95674
2019-05-22T12:32:52.231Z,95671
2019-05-22T12:34:00.769Z,95670
2019-05-22T12:35:10.293Z,95675
2019-05-22T12:36:19.820Z,95673
2019-05-22T12:37:29.386Z,95676
2019-05-22T12:38:38.881Z,95676
2019-05-22T12:39:48.405Z,95678
2019-05-22T12:40:57.927Z,95677
2019-05-22T12:42:07.461Z,95677
2019-05-22T12:43:16.960Z,95679
2019-05-22T12:44:26.515Z,95678
2019-05-22T12:45:36.022Z,95670
2019-05-22T12:46:45.554Z,95675
2019-05-22T12:47:55.103Z,95670
2019-05-22T12:49:08.459Z,95673
2019-05-22T12:50:14.176Z,95674
2019-05-22T12:51:23.725Z,95678
2019-05-22T12:52:33.313Z,95677
2019-05-22T12:53:42.844Z,95672
2019-05-22T12:54:53.090Z,95675
2019-05-22T12:56:01.894Z,95675
2019-05-22T12:57:11.415Z,95676
2019-05-22T12:58:20.933Z,95679
2019-05-22T12:59:30.478Z,95678
2019-05-22T13:00:40.029Z,95679
2019-05-22T13:01:49.548Z,95676
2019-05-22T13:02:59.065Z,95682
2019-05-22T13:04:08.598Z,95676
2019-05-22T13:05:18.119Z,95678
2019-05-22T13:06:27.633Z,95675
2019-05-22T13:07:37.142Z,95676
2019-05-22T13:08:46.681Z,95676
2019-05-22T13:09:56.201Z,95677
2019-05-22T13:11:05.756Z,95676
2019-05-22T13:12:15.222Z,95677
2019-05-22T13:13:24.735Z,95670
2019-05-22T13:14:34.282Z,95673
2019-05-22T13:15:43.792Z,95674
2019-05-22T13:16:53.343Z,95674
2019-05-22T13:18:02.880Z,95675
2019-05-22T13:19:12.426Z,95679
2019-05-22T13:20:38.964Z,95679
2019-05-22T13:21:32.437Z,95678
2019-05-22T13:22:41.944Z,95678
2019-05-22T13:23:51.586Z,95679
2019-05-22T13:25:01.013Z,95679
2019-05-22T13:26:10.531Z,95680
2019-05-22T13:27:20.098Z,95675
2019-05-22T13:28:29.618Z,95678
2019-05-22T13:29:39.172Z,95675
2019-05-22T13:30:48.691Z,95676
2019-05-22T13:31:58.210Z,95671
2019-05-22T13:33:07.728Z,95676
2019-05-22T13:34:17.274Z,95678
2019-05-22T13:35:27.073Z,95676
2019-05-22T13:36:36.332Z,95676
2019-05-22T13:37:45.841Z,95675
2019-05-22T13:38:55.363Z,95677
2019-05-22T13:40:06.157Z,95673
2019-05-22T13:41:15.444Z,95675
2019-05-22T13:42:24.963Z,95681
2019-05-22T13:43:34.493Z,95678
2019-05-22T13:44:44.031Z,95681
2019-05-22T13:45:53.550Z,95689
2019-05-22T13:47:03.068Z,95693
2019-05-22T13:48:12.610Z,95684
2019-05-22T13:49:22.158Z,95689
2019-05-22T13:50:31.665Z,95691
2019-05-22T13:51:41.196Z,95688
2019-05-22T13:52:50.718Z,95689
2019-05-22T13:54:00.237Z,95693
2019-05-22T13:55:09.784Z,95693
2019-05-22T13:56:19.287Z,95694
2019-05-22T13:57:28.776Z,95690
2019-05-22T13:58:38.291Z,95691
2019-05-22T13:59:47.830Z,95694
2019-05-22T14:00:57.340Z,95689
2019-05-22T14:02:06.854Z,95691
2019-05-22T14:03:16.360Z,95695
2019-05-22T14:04:25.912Z,95690
2019-05-22T14:05:35.426Z,95689
2019-05-22T14:06:44.930Z,95691
2019-05-22T14:07:54.452Z,95686
2019-05-22T14:09:04.021Z,95692
2019-05-22T14:10:13.513Z,95694
2019-05-22T14:11:23.039Z,95690
2019-05-22T14:12:32.528Z,95691
2019-05-22T14:13:42.043Z,95691
2019-05-22T14:14:51.591Z,95694
2019-05-22T14:16:01.117Z,95694
2019-05-22T14:17:10.634Z,95688
2019-05-22T14:18:20.228Z,95693
2019-05-22T14:19:29.703Z,95691
2019-05-22T14:20:39.227Z,95687
2019-05-22T14:21:51.599Z,95684
2019-05-22T14:22:58.342Z,95690
2019-05-22T14:24:07.850Z,95689
2019-05-22T14:25:17.391Z,95689
2019-05-22T14:26:29.828Z,95687
2019-05-22T14:27:40.718Z,95691
2019-05-22T14:28:45.895Z,95693
2019-05-22T14:29:55.436Z,95693
2019-05-22T14:31:04.969Z,95692
2019-05-22T14:32:14.472Z,95694
2019-05-22T14:33:27.254Z,95695
2019-05-22T14:34:33.542Z,95697
2019-05-22T14:35:48.609Z,95697
2019-05-22T14:36:52.541Z,95695
2019-05-22T14:38:02.056Z,95697
2019-05-22T14:39:11.565Z,95699
2019-05-22T14:40:21.098Z,95693
2019-05-22T14:41:30.607Z,95690
2019-05-22T14:42:40.215Z,95690
2019-05-22T14:43:49.872Z,95691
2019-05-22T14:44:59.517Z,95693
2019-05-22T14:46:09.049Z,95690
2019-05-22T14:47:18.544Z,95689
2019-05-22T14:48:28.048Z,95685
2019-05-22T14:49:37.555Z,95693
2019-05-22T14:50:47.096Z,95684
2019-05-22T14:51:56.600Z,95688
2019-05-22T14:53:06.113Z,95692
2019-05-22T14:54:15.626Z,95691
2019-05-22T14:55:25.311Z,95689